Time,TemperatureF,DewpointF,PressureIn,WindDirection,WindDirectionDegrees,WindSpeedMPH,WindSpeedGustMPH,Humidity,HourlyPrecipIn,Conditions,Clouds,dailyrainin,SoftwareType,DateUTC
2013-07-06 00:00:00,70.2,59.6,30.18,NE,48,8.1,8.1,69,0.00,CLR,,0.00,WeatherDisplay:10.37,2013-07-05 22:00:00,
2013-07-06 00:05:00,70.1,59.5,30.18,NNE,31,6.9,6.9,69,0.00,CLR,,0.00,WeatherDisplay:10.37,2013-07-05 22:05:00,
2013-07-06 00:10:00,70.0,59.4,30.18,ENE,60,5.8,5.8,69,0.00,CLR,,0.00,WeatherDisplay:10.37,2013-07-05 22:10:00,
2013-07-06 00:15:00,70.0,59.4,30.18,NNE,32,5.8,5.8,69,0.00,CLR,,0.00,WeatherDisplay:10.37,2013-07-05 22:15:00,
2013-07-06 00:20:00,70.0,59.8,30.18,NE,48,6.9,6.9,70,0.00,CLR,,0.00,WeatherDisplay:10.37,2013-07-05 22:20:00,
2013-07-06 00:25:00,70.0,59.8,30.18,NE,48,6.0,6.0,70,0.00,CLR,,0.00,WeatherDisplay:10.37,2013-07-05 22:25:00,
2013-07-06 00:30:00,70.0,59.8,30.18,NE,47,5.0,5.0,70,0.00,CLR,,0.00,WeatherDisplay:10.37,2013-07-05 22:30:00,
2013-07-06 00:35:00,69.9,59.7,30.18,NE,54,6.9,6.9,70,0.00,CLR,,0.00,WeatherDisplay:10.37,2013-07-05 22:35:00,
2013-07-06 00:40:00,69.9,59.7,30.18,NE,39,6.9,6.9,70,0.00,CLR,,0.00,WeatherDisplay:10.37,2013-07-05 22:40:00,
2013-07-06 00:45:00,69.8,59.6,30.18,NE,54,6.9,6.9,70,0.00,CLR,,0.00,WeatherDisplay:10.37,2013-07-05 22:45:00,
2013-07-06 00:50:00,69.7,59.9,30.19,ENE,64,4.0,4.0,71,0.00,CLR,,0.00,WeatherDisplay:10.37,2013-07-05 22:50:00,
2013-07-06 00:55:00,69.6,59.8,30.18,ENE,64,4.0,4.0,71,0.00,CLR,,0.00,WeatherDisplay:10.37,2013-07-05 22:55:00,
2013-07-06 01:00:00,69.5,59.7,30.18,NE,53,3.5,3.7,71,0.00,CLR,,0.00,WeatherDisplay:10.37,2013-07-05 23:00:00,
2013-07-06 01:05:00,69.5,59.7,30.18,NE,54,3.5,3.5,71,0.00,CLR,,0.00,WeatherDisplay:10.37,2013-07-05 23:05:00,
2013-07-06 01:10:00,69.4,59.6,30.18,NE,55,4.6,4.6,71,0.00,CLR,,0.00,WeatherDisplay:10.37,2013-07-05 23:10:00,
2013-07-06 01:15:00,69.4,59.6,30.18,NE,55,4.6,4.6,71,0.00,CLR,,0.00,WeatherDisplay:10.37,2013-07-05 23:15:00,
2013-07-06 01:20:00,69.4,60.0,30.18,ENE,64,7.0,7.0,72,0.00,CLR,,0.00,WeatherDisplay:10.37,2013-07-05 23:20:00,
2013-07-06 01:25:00,69.4,60.0,30.18,ENE,70,6.9,6.9,72,0.00,CLR,,0.00,WeatherDisplay:10.37,2013-07-05 23:25:00,
2013-07-06 01:30:00,69.4,60.0,30.18,NE,56,5.0,5.0,72,0.00,CLR,,0.00,WeatherDisplay:10.37,2013-07-05 23:30:00,
2013-07-06 01:35:00,69.4,60.4,30.17,NE,54,4.6,4.6,73,0.00,CLR,,0.00,WeatherDisplay:10.37,2013-07-05 23:35:00,
2013-07-06 01:40:00,69.4,60.4,30.17,ENE,57,5.0,5.0,73,0.00,CLR,,0.00,WeatherDisplay:10.37,2013-07-05 23:40:00,
2013-07-06 01:45:00,69.5,60.5,30.17,NE,54,6.9,6.9,73,0.00,CLR,,0.00,WeatherDisplay:10.37,2013-07-05 23:45:00,
2013-07-06 01:50:00,69.4,60.4,30.17,NE,42,3.5,3.5,73,0.00,CLR,,0.00,WeatherDisplay:10.37,2013-07-05 23:50:00,
2013-07-06 01:55:00,69.4,60.8,30.17,ENE,59,3.5,3.5,74,0.00,CLR,,0.00,WeatherDisplay:10.37,2013-07-05 23:55:00,
2013-07-06 02:00:00,69.4,60.8,30.17,NE,48,3.5,3.5,74,0.00,CLR,,0.00,WeatherDisplay:10.37,2013-07-06 00:00:00,
2013-07-06 02:05:00,69.3,60.7,30.17,NE,38,5.0,5.0,74,0.00,CLR,,0.00,WeatherDisplay:10.37,2013-07-06 00:05:00,
2013-07-06 02:10:00,69.2,60.6,30.17,ENE,59,6.9,6.9,74,0.00,CLR,,0.00,WeatherDisplay:10.37,2013-07-06 00:10:00,
2013-07-06 02:15:00,69.3,61.0,30.17,ENE,62,6.9,6.9,75,0.00,CLR,,0.00,WeatherDisplay:10.37,2013-07-06 00:15:00,
2013-07-06 02:20:00,69.2,60.9,30.17,NE,53,6.9,6.9,75,0.00,CLR,,0.00,WeatherDisplay:10.37,2013-07-06 00:20:00,
2013-07-06 02:25:00,69.2,60.9,30.17,NE,52,4.6,4.6,75,0.00,CLR,,0.00,WeatherDisplay:10.37,2013-07-06 00:25:00,
2013-07-06 02:30:00,69.1,60.8,30.17,ENE,64,6.9,6.9,75,0.00,CLR,,0.00,WeatherDisplay:10.37,2013-07-06 00:30:00,
2013-07-06 02:35:00,69.1,60.8,30.16,ENE,64,9.2,9.2,75,0.00,CLR,,0.00,WeatherDisplay:10.37,2013-07-06 00:35:00,
2013-07-06 02:40:00,69.0,60.7,30.16,ENE,58,8.1,8.1,75,0.00,CLR,,0.00,WeatherDisplay:10.37,2013-07-06 00:40:00,
2013-07-06 02:41:00,69.1,60.8,30.16,ENE,60,8.1,8.1,75,0.00,CLR,,0.00,WeatherDisplay:10.37,2013-07-06 00:41:00,
2013-07-06 02:46:00,68.9,60.6,30.16,NE,42,9.2,9.2,75,0.00,CLR,,0.00,WeatherDisplay:10.37,2013-07-06 00:46:00,
2013-07-06 02:51:00,68.8,60.6,30.16,NNE,33,4.6,4.6,75,0.00,CLR,,0.00,WeatherDisplay:10.37,2013-07-06 00:51:00,
2013-07-06 02:56:00,68.7,60.8,30.16,NNE,30,6.9,6.9,76,0.00,CLR,,0.00,WeatherDisplay:10.37,2013-07-06 00:56:00,
2013-07-06 03:01:00,68.7,60.8,30.16,NE,55,8.1,8.1,76,0.00,CLR,,0.00,WeatherDisplay:10.37,2013-07-06 01:01:00,
2013-07-06 03:06:00,68.7,60.8,30.16,NE,43,7.0,7.0,76,0.00,CLR,,0.00,WeatherDisplay:10.37,2013-07-06 01:06:00,
2013-07-06 03:11:00,68.7,60.8,30.16,ENE,60,9.2,9.2,76,0.00,CLR,,0.00,WeatherDisplay:10.37,2013-07-06 01:11:00,
2013-07-06 03:16:00,68.6,61.1,30.16,NE,51,10.4,10.4,77,0.00,CLR,,0.00,WeatherDisplay:10.37,2013-07-06 01:16:00,
2013-07-06 03:21:00,68.5,61.0,30.16,ENE,73,9.2,9.2,77,0.00,CLR,,0.00,WeatherDisplay:10.37,2013-07-06 01:21:00,
2013-07-06 03:26:00,68.3,60.8,30.16,NE,52,9.2,9.2,77,0.00,CLR,,0.00,WeatherDisplay:10.37,2013-07-06 01:26:00,
2013-07-06 03:31:00,68.2,60.7,30.16,NE,48,8.1,8.1,77,0.00,CLR,,0.00,WeatherDisplay:10.37,2013-07-06 01:31:00,
2013-07-06 03:36:00,68.0,60.5,30.15,NNE,29,8.1,8.1,77,0.00,CLR,,0.00,WeatherDisplay:10.37,2013-07-06 01:36:00,
2013-07-06 03:41:00,67.8,60.3,30.15,ENE,57,9.2,9.2,77,0.00,CLR,,0.00,WeatherDisplay:10.37,2013-07-06 01:41:00,
2013-07-06 03:46:00,67.7,60.6,30.15,NE,36,9.2,9.2,78,0.00,CLR,,0.00,WeatherDisplay:10.37,2013-07-06 01:46:00,
2013-07-06 03:51:00,67.4,60.3,30.15,NE,43,9.2,9.2,78,0.00,CLR,,0.00,WeatherDisplay:10.37,2013-07-06 01:51:00,
2013-07-06 03:56:00,67.4,60.7,30.15,NE,41,12.7,12.7,79,0.00,CLR,,0.00,WeatherDisplay:10.37,2013-07-06 01:56:00,
2013-07-06 04:01:00,67.5,61.1,30.15,NE,54,10.4,10.4,80,0.00,CLR,,0.00,WeatherDisplay:10.37,2013-07-06 02:01:00,
2013-07-06 04:06:00,67.5,61.5,30.15,NE,37,12.7,12.7,81,0.00,CLR,,0.00,WeatherDisplay:10.37,2013-07-06 02:06:00,
2013-07-06 04:11:00,67.8,61.8,30.15,NE,44,10.4,10.4,81,0.00,CLR,,0.00,WeatherDisplay:10.37,2013-07-06 02:11:00,
2013-07-06 04:16:00,67.8,61.8,30.15,ENE,57,10.4,10.4,81,0.00,CLR,,0.00,WeatherDisplay:10.37,2013-07-06 02:16:00,
2013-07-06 04:21:00,67.8,61.8,30.15,ENE,71,10.4,10.4,81,0.00,CLR,,0.00,WeatherDisplay:10.37,2013-07-06 02:21:00,
2013-07-06 04:26:00,67.8,61.8,30.15,NE,46,11.5,11.5,81,0.00,CLR,,0.00,WeatherDisplay:10.37,2013-07-06 02:26:00,
2013-07-06 04:31:00,67.7,61.3,30.15,NE,56,10.4,10.4,80,0.00,CLR,,0.00,WeatherDisplay:10.37,2013-07-06 02:31:00,
2013-07-06 04:36:00,67.5,61.1,30.15,ENE,58,11.5,11.5,80,0.00,CLR,,0.00,WeatherDisplay:10.37,2013-07-06 02:36:00,
2013-07-06 04:41:00,67.4,61.4,30.15,NE,48,10.4,10.4,81,0.00,CLR,,0.00,WeatherDisplay:10.37,2013-07-06 02:41:00,
2013-07-06 04:46:00,67.4,61.4,30.15,NE,41,9.2,9.2,81,0.00,CLR,,0.00,WeatherDisplay:10.37,2013-07-06 02:46:00,
2013-07-06 04:51:00,67.4,61.4,30.15,NE,49,11.5,11.5,81,0.00,CLR,,0.00,WeatherDisplay:10.37,2013-07-06 02:51:00,
2013-07-06 04:56:00,67.5,61.5,30.15,NE,54,9.2,9.2,81,0.00,CLR,,0.00,WeatherDisplay:10.37,2013-07-06 02:56:00,
2013-07-06 05:01:00,67.6,61.6,30.15,NE,46,10.4,10.4,81,0.00,CLR,,0.00,WeatherDisplay:10.37,2013-07-06 03:01:00,
2013-07-06 05:06:00,67.4,61.4,30.15,NE,56,11.5,11.5,81,0.00,CLR,,0.00,WeatherDisplay:10.37,2013-07-06 03:06:00,
2013-07-06 05:11:00,67.5,61.5,30.15,NNE,30,9.2,9.2,81,0.00,CLR,,0.00,WeatherDisplay:10.37,2013-07-06 03:11:00,
2013-07-06 05:16:00,67.4,61.4,30.15,NE,38,5.0,5.0,81,0.00,CLR,,0.00,WeatherDisplay:10.37,2013-07-06 03:16:00,
2013-07-06 05:21:00,67.1,61.1,30.15,NNE,31,5.0,5.0,81,0.00,CLR,,0.00,WeatherDisplay:10.37,2013-07-06 03:21:00,
2013-07-06 05:26:00,67.1,61.1,30.16,NE,37,6.9,6.9,81,0.00,CLR,,0.00,WeatherDisplay:10.37,2013-07-06 03:26:00,
2013-07-06 05:31:00,67.1,61.4,30.15,NE,42,9.2,9.2,82,0.00,CLR,,0.00,WeatherDisplay:10.37,2013-07-06 03:31:00,
2013-07-06 05:36:00,67.0,61.7,30.16,NE,45,9.2,9.2,83,0.00,CLR,,0.00,WeatherDisplay:10.37,2013-07-06 03:36:00,
2013-07-06 05:41:00,67.0,61.7,30.16,NE,48,6.9,6.9,83,0.00,CLR,,0.00,WeatherDisplay:10.37,2013-07-06 03:41:00,
2013-07-06 05:46:00,67.0,62.0,30.16,NE,43,10.4,10.4,84,0.00,CLR,,0.00,WeatherDisplay:10.37,2013-07-06 03:46:00,
2013-07-06 05:51:00,67.1,62.4,30.16,NNE,33,9.2,9.2,85,0.00,CLR,,0.00,WeatherDisplay:10.37,2013-07-06 03:51:00,
2013-07-06 05:56:00,67.0,62.0,30.16,NE,45,5.0,5.0,84,0.00,CLR,,0.00,WeatherDisplay:10.37,2013-07-06 03:56:00,
2013-07-06 06:01:00,67.0,62.0,30.16,NNE,33,9.2,9.2,84,0.00,CLR,,0.00,WeatherDisplay:10.37,2013-07-06 04:01:00,
2013-07-06 06:06:00,67.1,62.4,30.16,NE,35,7.0,7.0,85,0.00,CLR,,0.00,WeatherDisplay:10.37,2013-07-06 04:06:00,
2013-07-06 06:11:00,67.0,62.3,30.16,NE,35,5.0,5.0,85,0.00,CLR,,0.00,WeatherDisplay:10.37,2013-07-06 04:11:00,
2013-07-06 06:16:00,66.9,61.9,30.16,NNE,31,5.8,5.8,84,0.00,CLR,,0.00,WeatherDisplay:10.37,2013-07-06 04:16:00,
2013-07-06 06:21:00,67.0,62.0,30.16,NNE,22,4.6,4.9,84,0.00,CLR,,0.00,WeatherDisplay:10.37,2013-07-06 04:21:00,
2013-07-06 06:26:00,67.1,62.1,30.16,NE,37,7.0,7.0,84,0.00,CLR,,0.00,WeatherDisplay:10.37,2013-07-06 04:26:00,
2013-07-06 06:31:00,67.1,62.4,30.16,NE,48,7.0,7.0,85,0.00,CLR,,0.00,WeatherDisplay:10.37,2013-07-06 04:31:00,
2013-07-06 06:36:00,67.1,62.4,30.16,ENE,59,5.8,5.8,85,0.00,CLR,,0.00,WeatherDisplay:10.37,2013-07-06 04:36:00,
2013-07-06 06:41:00,67.1,62.8,30.16,NE,37,6.0,6.0,86,0.00,CLR,,0.00,WeatherDisplay:10.37,2013-07-06 04:41:00,
2013-07-06 06:46:00,67.1,62.4,30.16,NE,35,8.1,8.1,85,0.00,CLR,,0.00,WeatherDisplay:10.37,2013-07-06 04:46:00,
2013-07-06 06:51:00,67.1,62.4,30.16,NNE,19,3.5,3.5,85,0.00,CLR,,0.00,WeatherDisplay:10.37,2013-07-06 04:51:00,
2013-07-06 06:56:00,67.2,62.2,30.16,NE,52,8.1,8.1,84,0.00,CLR,,0.00,WeatherDisplay:10.37,2013-07-06 04:56:00,
2013-07-06 07:01:00,67.6,62.6,30.16,NE,54,8.1,8.1,84,0.00,CLR,,0.00,WeatherDisplay:10.37,2013-07-06 05:01:00,
2013-07-06 07:06:00,67.5,62.8,30.16,NE,54,7.0,7.0,85,0.00,CLR,,0.00,WeatherDisplay:10.37,2013-07-06 05:06:00,
2013-07-06 07:11:00,67.4,62.7,30.17,ENE,58,6.9,6.9,85,0.00,CLR,,0.00,WeatherDisplay:10.37,2013-07-06 05:11:00,
2013-07-06 07:16:00,67.5,63.2,30.16,ENE,74,4.6,4.6,86,0.00,CLR,,0.00,WeatherDisplay:10.37,2013-07-06 05:16:00,
2013-07-06 07:21:00,67.6,63.3,30.16,NE,54,8.1,8.1,86,0.00,CLR,,0.00,WeatherDisplay:10.37,2013-07-06 05:21:00,
2013-07-06 07:26:00,67.7,63.0,30.16,ENE,60,9.2,9.2,85,0.00,CLR,,0.00,WeatherDisplay:10.37,2013-07-06 05:26:00,
2013-07-06 07:31:00,67.8,63.1,30.16,ENE,68,8.0,8.0,85,0.00,CLR,,0.00,WeatherDisplay:10.37,2013-07-06 05:31:00,
2013-07-06 07:36:00,68.0,63.3,30.16,NE,50,9.2,9.2,85,0.00,CLR,,0.00,WeatherDisplay:10.37,2013-07-06 05:36:00,
2013-07-06 07:41:00,68.4,63.7,30.17,ENE,61,8.1,8.1,85,0.00,CLR,,0.00,WeatherDisplay:10.37,2013-07-06 05:41:00,
2013-07-06 07:46:00,68.6,63.9,30.17,NE,49,6.9,6.9,85,0.00,CLR,,0.00,WeatherDisplay:10.37,2013-07-06 05:46:00,
2013-07-06 07:51:00,68.8,64.1,30.17,ENE,76,7.0,7.0,85,0.00,CLR,,0.00,WeatherDisplay:10.37,2013-07-06 05:51:00,
2013-07-06 07:56:00,69.0,64.3,30.17,ENE,78,7.0,7.0,85,0.00,CLR,,0.00,WeatherDisplay:10.37,2013-07-06 05:56:00,
2013-07-06 08:01:00,69.2,64.2,30.17,ENE,74,9.2,9.2,84,0.00,CLR,,0.00,WeatherDisplay:10.37,2013-07-06 06:01:00,
2013-07-06 08:06:00,69.5,64.5,30.17,East,93,8.1,8.1,84,0.00,CLR,,0.00,WeatherDisplay:10.37,2013-07-06 06:06:00,
2013-07-06 08:11:00,69.6,64.5,30.17,East,89,6.0,6.0,84,0.00,CLR,,0.00,WeatherDisplay:10.37,2013-07-06 06:11:00,
2013-07-06 08:16:00,69.9,64.5,30.17,ENE,68,6.9,6.9,83,0.00,CLR,,0.00,WeatherDisplay:10.37,2013-07-06 06:16:00,
2013-07-06 08:21:00,70.3,64.5,30.18,ENE,64,5.0,5.0,82,0.00,CLR,,0.00,WeatherDisplay:10.37,2013-07-06 06:21:00,
2013-07-06 08:26:00,70.6,64.5,30.18,NE,50,8.1,8.1,81,0.00,CLR,,0.00,WeatherDisplay:10.37,2013-07-06 06:26:00,
2013-07-06 08:31:00,70.9,64.4,30.18,ENE,73,3.5,3.5,80,0.00,CLR,,0.00,WeatherDisplay:10.37,2013-07-06 06:31:00,
2013-07-06 08:36:00,71.2,64.0,30.18,ENE,58,8.1,8.1,78,0.00,CLR,,0.00,WeatherDisplay:10.37,2013-07-06 06:36:00,
2013-07-06 08:41:00,71.5,63.5,30.18,ENE,73,7.0,7.0,76,0.00,CLR,,0.00,WeatherDisplay:10.37,2013-07-06 06:41:00,
2013-07-06 08:46:00,71.7,63.7,30.18,ENE,66,8.1,8.1,76,0.00,CLR,,0.00,WeatherDisplay:10.37,2013-07-06 06:46:00,
2013-07-06 08:51:00,72.3,64.3,30.18,East,88,7.0,7.0,76,0.00,CLR,,0.00,WeatherDisplay:10.37,2013-07-06 06:51:00,
2013-07-06 08:56:00,72.7,65.1,30.18,ENE,77,3.5,3.5,77,0.00,CLR,,0.00,WeatherDisplay:10.37,2013-07-06 06:56:00,
2013-07-06 09:01:00,73.6,64.8,30.18,ENE,76,3.5,3.5,74,0.00,CLR,,0.00,WeatherDisplay:10.37,2013-07-06 07:01:00,
2013-07-06 09:06:00,74.1,64.5,30.18,ESE,119,4.0,4.0,72,0.00,CLR,,0.00,WeatherDisplay:10.37,2013-07-06 07:06:00,
2013-07-06 09:11:00,74.0,63.2,30.18,East,83,6.9,6.9,69,0.00,CLR,,0.00,WeatherDisplay:10.37,2013-07-06 07:11:00,
2013-07-06 09:16:00,73.9,63.5,30.18,East,95,3.5,3.5,70,0.00,CLR,,0.00,WeatherDisplay:10.37,2013-07-06 07:16:00,
2013-07-06 09:21:00,74.5,63.7,30.18,East,97,5.0,5.0,69,0.00,CLR,,0.00,WeatherDisplay:10.37,2013-07-06 07:21:00,
2013-07-06 09:26:00,74.5,62.8,30.18,ESE,114,6.9,6.9,67,0.00,CLR,,0.00,WeatherDisplay:10.37,2013-07-06 07:26:00,
2013-07-06 09:31:00,74.8,63.1,30.18,East,80,4.6,4.6,67,0.00,CLR,,0.00,WeatherDisplay:10.37,2013-07-06 07:31:00,
2013-07-06 09:36:00,74.8,62.7,30.18,East,79,5.0,5.0,66,0.00,CLR,,0.00,WeatherDisplay:10.37,2013-07-06 07:36:00,
2013-07-06 09:41:00,75.1,63.4,30.19,East,100,3.5,3.5,67,0.00,CLR,,0.00,WeatherDisplay:10.37,2013-07-06 07:41:00,
2013-07-06 09:46:00,75.4,63.2,30.19,ESE,111,4.6,4.6,66,0.00,CLR,,0.00,WeatherDisplay:10.37,2013-07-06 07:46:00,
2013-07-06 09:51:00,75.9,63.7,30.18,East,89,6.9,6.9,66,0.00,CLR,,0.00,WeatherDisplay:10.37,2013-07-06 07:51:00,
2013-07-06 09:56:00,76.1,63.0,30.19,ESE,120,3.5,3.5,64,0.00,CLR,,0.00,WeatherDisplay:10.37,2013-07-06 07:56:00,
2013-07-06 10:01:00,76.0,62.9,30.18,ESE,110,4.6,4.6,64,0.00,CLR,,0.00,WeatherDisplay:10.37,2013-07-06 08:01:00,
2013-07-06 10:06:00,76.1,62.1,30.19,SSE,149,4.0,4.0,62,0.00,CLR,,0.00,WeatherDisplay:10.37,2013-07-06 08:06:00,
2013-07-06 10:11:00,76.5,63.4,30.19,ESE,112,4.0,4.0,64,0.00,CLR,,0.00,WeatherDisplay:10.37,2013-07-06 08:11:00,
2013-07-06 10:16:00,76.7,63.6,30.18,SE,141,3.5,3.5,64,0.00,CLR,,0.00,WeatherDisplay:10.37,2013-07-06 08:16:00,
2013-07-06 10:21:00,77.1,62.6,30.18,ESE,123,6.9,6.9,61,0.00,CLR,,0.00,WeatherDisplay:10.37,2013-07-06 08:21:00,
2013-07-06 10:26:00,77.3,62.8,30.18,ESE,123,7.0,7.0,61,0.00,CLR,,0.00,WeatherDisplay:10.37,2013-07-06 08:26:00,
2013-07-06 10:31:00,77.3,63.3,30.18,SE,132,6.9,6.9,62,0.00,CLR,,0.00,WeatherDisplay:10.37,2013-07-06 08:31:00,
2013-07-06 10:36:00,77.9,63.4,30.18,East,99,5.0,5.0,61,0.00,CLR,,0.00,WeatherDisplay:10.37,2013-07-06 08:36:00,
2013-07-06 10:41:00,78.4,63.4,30.18,SE,127,3.0,3.0,60,0.00,CLR,,0.00,WeatherDisplay:10.37,2013-07-06 08:41:00,
2013-07-06 10:46:00,78.7,63.2,30.19,East,81,3.5,3.5,59,0.00,CLR,,0.00,WeatherDisplay:10.37,2013-07-06 08:46:00,
2013-07-06 10:51:00,78.6,63.1,30.19,East,97,3.5,3.5,59,0.00,CLR,,0.00,WeatherDisplay:10.37,2013-07-06 08:51:00,
2013-07-06 10:56:00,78.8,61.8,30.18,ESE,108,4.6,4.6,56,0.00,CLR,,0.00,WeatherDisplay:10.37,2013-07-06 08:56:00,
2013-07-06 11:01:00,79.0,60.9,30.19,SSE,157,3.5,3.5,54,0.00,CLR,,0.00,WeatherDisplay:10.37,2013-07-06 09:01:00,
2013-07-06 11:06:00,78.8,60.7,30.19,SE,127,4.6,4.6,54,0.00,CLR,,0.00,WeatherDisplay:10.37,2013-07-06 09:06:00,
2013-07-06 11:11:00,78.5,61.0,30.19,ESE,102,6.0,6.0,55,0.00,CLR,,0.00,WeatherDisplay:10.37,2013-07-06 09:11:00,
2013-07-06 11:16:00,78.6,60.0,30.19,SSE,163,4.6,4.6,53,0.00,CLR,,0.00,WeatherDisplay:10.37,2013-07-06 09:16:00,
2013-07-06 11:21:00,78.7,60.7,30.19,SSW,194,1.1,1.1,54,0.00,CLR,,0.00,WeatherDisplay:10.37,2013-07-06 09:21:00,
2013-07-06 11:26:00,79.9,61.2,30.19,ESE,109,3.5,3.5,53,0.00,CLR,,0.00,WeatherDisplay:10.37,2013-07-06 09:26:00,
2013-07-06 11:31:00,80.0,59.1,30.19,East,97,3.5,3.5,49,0.00,CLR,,0.00,WeatherDisplay:10.37,2013-07-06 09:31:00,
2013-07-06 11:36:00,80.6,60.2,30.19,SE,142,3.5,3.5,50,0.00,CLR,,0.00,WeatherDisplay:10.37,2013-07-06 09:36:00,
2013-07-06 11:41:00,80.7,61.4,30.19,ENE,68,5.8,5.8,52,0.00,CLR,,0.00,WeatherDisplay:10.37,2013-07-06 09:41:00,
2013-07-06 11:46:00,80.8,61.5,30.19,SSE,160,4.0,4.0,52,0.00,CLR,,0.00,WeatherDisplay:10.37,2013-07-06 09:46:00,
2013-07-06 11:51:00,80.8,61.5,30.19,SSE,159,3.5,3.5,52,0.00,CLR,,0.00,WeatherDisplay:10.37,2013-07-06 09:51:00,
2013-07-06 11:56:00,80.7,60.9,30.19,South,183,5.8,5.8,51,0.00,CLR,,0.00,WeatherDisplay:10.37,2013-07-06 09:56:00,
2013-07-06 12:01:00,80.4,60.1,30.19,SE,131,6.0,6.0,50,0.00,CLR,,0.00,WeatherDisplay:10.37,2013-07-06 10:01:00,
2013-07-06 12:06:00,80.0,59.7,30.19,SSE,147,3.5,3.5,50,0.00,CLR,,0.00,WeatherDisplay:10.37,2013-07-06 10:06:00,
2013-07-06 12:11:00,80.5,60.1,30.19,SSE,158,5.0,5.0,50,0.00,CLR,,0.00,WeatherDisplay:10.37,2013-07-06 10:11:00,
2013-07-06 12:16:00,80.6,58.5,30.19,SE,128,4.6,4.6,47,0.00,CLR,,0.00,WeatherDisplay:10.37,2013-07-06 10:16:00,
2013-07-06 12:21:00,81.0,59.5,30.19,SSE,165,6.9,6.9,48,0.00,CLR,,0.00,WeatherDisplay:10.37,2013-07-06 10:21:00,
2013-07-06 12:26:00,81.2,59.1,30.19,SE,139,6.9,6.9,47,0.00,CLR,,0.00,WeatherDisplay:10.37,2013-07-06 10:26:00,
2013-07-06 12:31:00,80.9,59.4,30.19,SSE,165,5.8,5.8,48,0.00,CLR,,0.00,WeatherDisplay:10.37,2013-07-06 10:31:00,
2013-07-06 12:36:00,80.9,59.4,30.19,SE,135,6.9,6.9,48,0.00,CLR,,0.00,WeatherDisplay:10.37,2013-07-06 10:36:00,
2013-07-06 12:41:00,81.1,59.6,30.19,SE,127,6.9,6.9,48,0.00,CLR,,0.00,WeatherDisplay:10.37,2013-07-06 10:41:00,
2013-07-06 12:46:00,81.6,60.6,30.19,ESE,114,4.6,4.6,49,0.00,CLR,,0.00,WeatherDisplay:10.37,2013-07-06 10:46:00,
2013-07-06 12:51:00,81.6,60.0,30.19,South,191,8.0,8.0,48,0.00,CLR,,0.00,WeatherDisplay:10.37,2013-07-06 10:51:00,
2013-07-06 12:56:00,81.8,59.6,30.19,South,172,6.0,6.0,47,0.00,CLR,,0.00,WeatherDisplay:10.37,2013-07-06 10:56:00,
2013-07-06 13:01:00,81.8,59.0,30.19,South,184,6.0,6.0,46,0.00,CLR,,0.00,WeatherDisplay:10.37,2013-07-06 11:01:00,
2013-07-06 13:06:00,81.7,59.5,30.19,East,89,8.1,8.1,47,0.00,CLR,,0.00,WeatherDisplay:10.37,2013-07-06 11:06:00,
2013-07-06 13:11:00,81.7,59.5,30.19,SSE,159,8.1,8.1,47,0.00,CLR,,0.00,WeatherDisplay:10.37,2013-07-06 11:11:00,
2013-07-06 13:16:00,81.6,60.0,30.19,SSE,152,5.0,5.0,48,0.00,CLR,,0.00,WeatherDisplay:10.37,2013-07-06 11:16:00,
2013-07-06 13:21:00,81.2,60.2,30.19,SE,144,9.2,9.2,49,0.00,CLR,,0.00,WeatherDisplay:10.37,2013-07-06 11:21:00,
2013-07-06 13:26:00,81.0,60.0,30.19,South,174,6.9,6.9,49,0.00,CLR,,0.00,WeatherDisplay:10.37,2013-07-06 11:26:00,
2013-07-06 13:31:00,80.2,59.9,30.19,SSE,168,9.2,9.2,50,0.00,CLR,,0.00,WeatherDisplay:10.37,2013-07-06 11:31:00,
2013-07-06 13:36:00,80.1,60.3,30.19,South,169,10.4,10.4,51,0.00,CLR,,0.00,WeatherDisplay:10.37,2013-07-06 11:36:00,
2013-07-06 13:41:00,79.8,60.1,30.19,ESE,103,10.4,10.4,51,0.00,CLR,,0.00,WeatherDisplay:10.37,2013-07-06 11:41:00,
2013-07-06 13:46:00,80.3,61.1,30.19,SSE,153,6.0,6.0,52,0.00,CLR,,0.00,WeatherDisplay:10.37,2013-07-06 11:46:00,
2013-07-06 13:51:00,80.7,61.4,30.18,SSW,198,6.0,6.0,52,0.00,CLR,,0.00,WeatherDisplay:10.37,2013-07-06 11:51:00,
2013-07-06 13:56:00,80.1,62.0,30.18,South,183,8.1,8.1,54,0.00,CLR,,0.00,WeatherDisplay:10.37,2013-07-06 11:56:00,
2013-07-06 14:01:00,79.9,62.3,30.18,SSW,199,9.2,9.2,55,0.00,CLR,,0.00,WeatherDisplay:10.37,2013-07-06 12:01:00,
2013-07-06 14:06:00,79.3,61.7,30.19,SSE,165,10.4,10.4,55,0.00,CLR,,0.00,WeatherDisplay:10.37,2013-07-06 12:06:00,
2013-07-06 14:11:00,78.6,61.6,30.18,SSE,154,8.1,8.1,56,0.00,CLR,,0.00,WeatherDisplay:10.37,2013-07-06 12:11:00,
2013-07-06 14:16:00,79.0,62.0,30.18,SSE,165,10.4,10.4,56,0.00,CLR,,0.00,WeatherDisplay:10.37,2013-07-06 12:16:00,
2013-07-06 14:21:00,79.4,61.3,30.18,SE,131,8.1,8.1,54,0.00,CLR,,0.00,WeatherDisplay:10.37,2013-07-06 12:21:00,
2013-07-06 14:26:00,79.9,60.7,30.18,SSE,161,9.2,9.2,52,0.00,CLR,,0.00,WeatherDisplay:10.37,2013-07-06 12:26:00,
2013-07-06 14:31:00,79.8,60.1,30.18,SSE,160,9.2,9.2,51,0.00,CLR,,0.00,WeatherDisplay:10.37,2013-07-06 12:31:00,
2013-07-06 14:36:00,80.0,59.1,30.18,East,99,9.2,9.2,49,0.00,CLR,,0.00,WeatherDisplay:10.37,2013-07-06 12:36:00,
2013-07-06 14:41:00,80.7,60.9,30.18,SSE,160,11.5,11.5,51,0.00,CLR,,0.00,WeatherDisplay:10.37,2013-07-06 12:41:00,
2013-07-06 14:46:00,80.9,61.1,30.18,East,96,8.1,8.1,51,0.00,CLR,,0.00,WeatherDisplay:10.37,2013-07-06 12:46:00,
2013-07-06 14:51:00,81.2,60.2,30.18,SSE,162,8.1,8.1,49,0.00,CLR,,0.00,WeatherDisplay:10.37,2013-07-06 12:51:00,
2013-07-06 14:56:00,80.8,59.3,30.18,South,181,9.2,9.2,48,0.00,CLR,,0.00,WeatherDisplay:10.37,2013-07-06 12:56:00,
2013-07-06 15:01:00,80.5,58.4,30.18,SE,145,8.1,8.1,47,0.00,CLR,,0.00,WeatherDisplay:10.37,2013-07-06 13:01:00,
2013-07-06 15:06:00,80.1,58.6,30.18,SSE,166,8.1,8.1,48,0.00,CLR,,0.00,WeatherDisplay:10.37,2013-07-06 13:06:00,
2013-07-06 15:11:00,79.9,57.9,30.17,SSE,150,9.2,9.2,47,0.00,CLR,,0.00,WeatherDisplay:10.37,2013-07-06 13:11:00,
2013-07-06 15:16:00,80.4,58.9,30.17,SSE,157,9.2,9.2,48,0.00,CLR,,0.00,WeatherDisplay:10.37,2013-07-06 13:16:00,
2013-07-06 15:21:00,80.8,58.7,30.17,SE,143,12.7,12.7,47,0.00,CLR,,0.00,WeatherDisplay:10.37,2013-07-06 13:21:00,
2013-07-06 15:26:00,81.1,59.0,30.17,SSE,168,10.4,10.4,47,0.00,CLR,,0.00,WeatherDisplay:10.37,2013-07-06 13:26:00,
2013-07-06 15:31:00,81.4,59.2,30.17,South,178,10.4,10.4,47,0.00,CLR,,0.00,WeatherDisplay:10.37,2013-07-06 13:31:00,
2013-07-06 15:36:00,81.5,59.9,30.17,South,169,9.0,9.0,48,0.00,CLR,,0.00,WeatherDisplay:10.37,2013-07-06 13:36:00,
2013-07-06 15:41:00,81.3,59.1,30.17,SSE,150,11.5,11.5,47,0.00,CLR,,0.00,WeatherDisplay:10.37,2013-07-06 13:41:00,
2013-07-06 15:46:00,81.4,59.2,30.17,SSE,162,11.5,11.5,47,0.00,CLR,,0.00,WeatherDisplay:10.37,2013-07-06 13:46:00,
2013-07-06 15:51:00,81.3,59.1,30.17,SSE,160,10.0,10.0,47,0.00,CLR,,0.00,WeatherDisplay:10.37,2013-07-06 13:51:00,
2013-07-06 15:56:00,81.4,59.2,30.17,SSE,158,11.5,11.5,47,0.00,CLR,,0.00,WeatherDisplay:10.37,2013-07-06 13:56:00,
2013-07-06 16:01:00,81.5,59.9,30.16,South,171,10.0,10.0,48,0.00,CLR,,0.00,WeatherDisplay:10.37,2013-07-06 14:01:00,
2013-07-06 16:06:00,81.4,59.2,30.17,SSE,157,9.2,9.2,47,0.00,CLR,,0.00,WeatherDisplay:10.37,2013-07-06 14:06:00,
2013-07-06 16:11:00,81.2,59.6,30.17,SSE,156,15.0,15.0,48,0.00,CLR,,0.00,WeatherDisplay:10.37,2013-07-06 14:11:00,
2013-07-06 16:16:00,81.2,58.5,30.17,SSW,197,10.4,10.4,46,0.00,CLR,,0.00,WeatherDisplay:10.37,2013-07-06 14:16:00,
2013-07-06 16:21:00,81.5,59.3,30.17,SSE,159,10.4,10.4,47,0.00,CLR,,0.00,WeatherDisplay:10.37,2013-07-06 14:21:00,
2013-07-06 16:26:00,81.2,60.2,30.17,South,184,10.0,10.0,49,0.00,CLR,,0.00,WeatherDisplay:10.37,2013-07-06 14:26:00,
2013-07-06 16:31:00,80.9,59.9,30.17,SSW,206,10.0,10.0,49,0.00,CLR,,0.00,WeatherDisplay:10.37,2013-07-06 14:31:00,
2013-07-06 16:36:00,81.2,60.8,30.16,SSE,154,9.2,9.2,50,0.00,CLR,,0.00,WeatherDisplay:10.37,2013-07-06 14:36:00,
2013-07-06 16:41:00,81.3,61.4,30.16,South,176,11.5,11.5,51,0.00,CLR,,0.00,WeatherDisplay:10.37,2013-07-06 14:41:00,
2013-07-06 16:46:00,80.8,61.0,30.16,South,169,11.5,11.5,51,0.00,CLR,,0.00,WeatherDisplay:10.37,2013-07-06 14:46:00,
2013-07-06 16:51:00,80.9,61.1,30.16,SSE,165,9.0,9.0,51,0.00,CLR,,0.00,WeatherDisplay:10.37,2013-07-06 14:51:00,
2013-07-06 16:56:00,80.6,60.8,30.16,ESE,120,10.4,10.4,51,0.00,CLR,,0.00,WeatherDisplay:10.37,2013-07-06 14:56:00,
2013-07-06 17:01:00,81.0,61.2,30.16,SSE,154,9.2,9.2,51,0.00,CLR,,0.00,WeatherDisplay:10.37,2013-07-06 15:01:00,
2013-07-06 17:06:00,81.2,61.4,30.16,SSE,147,8.1,8.1,51,0.00,CLR,,0.00,WeatherDisplay:10.37,2013-07-06 15:06:00,
2013-07-06 17:11:00,81.4,59.2,30.16,SSE,152,11.0,11.0,47,0.00,CLR,,0.00,WeatherDisplay:10.37,2013-07-06 15:11:00,
2013-07-06 17:16:00,81.1,60.1,30.16,SSE,152,4.6,4.6,49,0.00,CLR,,0.00,WeatherDisplay:10.37,2013-07-06 15:16:00,
2013-07-06 17:21:00,81.5,60.5,30.16,South,174,9.0,9.0,49,0.00,CLR,,0.00,WeatherDisplay:10.37,2013-07-06 15:21:00,
2013-07-06 17:26:00,81.4,61.0,30.16,SE,143,10.4,10.4,50,0.00,CLR,,0.00,WeatherDisplay:10.37,2013-07-06 15:26:00,
2013-07-06 17:31:00,81.2,60.8,30.16,SSE,147,10.4,10.4,50,0.00,CLR,,0.00,WeatherDisplay:10.37,2013-07-06 15:31:00,
2013-07-06 17:36:00,81.3,61.4,30.16,SSE,157,8.1,8.1,51,0.00,CLR,,0.00,WeatherDisplay:10.37,2013-07-06 15:36:00,
2013-07-06 17:41:00,80.8,61.5,30.15,SE,143,6.9,6.9,52,0.00,CLR,,0.00,WeatherDisplay:10.37,2013-07-06 15:41:00,
2013-07-06 17:46:00,80.6,61.3,30.16,SE,145,10.4,10.4,52,0.00,CLR,,0.00,WeatherDisplay:10.37,2013-07-06 15:46:00,
2013-07-06 17:51:00,80.3,61.1,30.16,SSE,152,7.0,7.0,52,0.00,CLR,,0.00,WeatherDisplay:10.37,2013-07-06 15:51:00,
2013-07-06 17:56:00,80.6,61.9,30.15,SE,131,9.2,9.2,53,0.00,CLR,,0.00,WeatherDisplay:10.37,2013-07-06 15:56:00,
2013-07-06 18:01:00,80.3,61.6,30.15,SE,135,9.2,9.2,53,0.00,CLR,,0.00,WeatherDisplay:10.37,2013-07-06 16:01:00,
2013-07-06 18:06:00,80.3,62.1,30.15,SSE,168,7.0,7.0,54,0.00,CLR,,0.00,WeatherDisplay:10.37,2013-07-06 16:06:00,
2013-07-06 18:13:00,80.6,62.4,30.15,SSE,162,10.4,10.4,54,0.00,CLR,,0.00,WeatherDisplay:10.37,2013-07-06 16:13:00,
2013-07-06 18:18:00,80.7,62.5,30.15,South,170,11.5,11.5,54,0.00,CLR,,0.00,WeatherDisplay:10.37,2013-07-06 16:18:00,
2013-07-06 18:23:00,81.0,62.8,30.15,South,172,5.8,5.8,54,0.00,CLR,,0.00,WeatherDisplay:10.37,2013-07-06 16:23:00,
2013-07-06 18:28:00,80.8,62.6,30.15,South,181,9.0,9.0,54,0.00,CLR,,0.00,WeatherDisplay:10.37,2013-07-06 16:28:00,
2013-07-06 18:34:00,80.3,62.7,30.15,SSE,162,6.0,6.0,55,0.00,CLR,,0.00,WeatherDisplay:10.37,2013-07-06 16:34:00,
2013-07-06 18:39:00,79.9,63.3,30.15,SE,137,9.2,9.2,57,0.00,CLR,,0.00,WeatherDisplay:10.37,2013-07-06 16:39:00,
2013-07-06 18:45:00,79.3,63.2,30.15,South,171,8.1,8.1,58,0.00,CLR,,0.00,WeatherDisplay:10.37,2013-07-06 16:45:00,
2013-07-06 18:51:00,78.7,63.2,30.15,South,175,8.1,8.1,59,0.00,CLR,,0.00,WeatherDisplay:10.37,2013-07-06 16:51:00,
2013-07-06 18:56:00,78.4,63.4,30.15,SSW,192,9.2,9.2,60,0.00,CLR,,0.00,WeatherDisplay:10.37,2013-07-06 16:56:00,
2013-07-06 19:02:00,78.5,63.9,30.15,South,171,9.0,9.0,61,0.00,CLR,,0.00,WeatherDisplay:10.37,2013-07-06 17:02:00,
2013-07-06 19:08:00,78.5,63.9,30.15,SSE,149,8.1,8.1,61,0.00,CLR,,0.00,WeatherDisplay:10.37,2013-07-06 17:08:00,
2013-07-06 19:13:00,78.8,63.7,30.15,SSE,168,7.0,7.0,60,0.00,CLR,,0.00,WeatherDisplay:10.37,2013-07-06 17:13:00,
2013-07-06 19:19:00,78.7,63.2,30.15,South,170,7.0,7.0,59,0.00,CLR,,0.00,WeatherDisplay:10.37,2013-07-06 17:19:00,
2013-07-06 19:24:00,78.9,63.4,30.15,SSE,162,6.9,6.9,59,0.00,CLR,,0.00,WeatherDisplay:10.37,2013-07-06 17:24:00,
2013-07-06 19:30:00,78.6,64.0,30.15,SSE,154,6.0,6.0,61,0.00,CLR,,0.00,WeatherDisplay:10.37,2013-07-06 17:30:00,
2013-07-06 19:35:00,78.6,63.6,30.15,SSE,164,8.1,8.1,60,0.00,CLR,,0.00,WeatherDisplay:10.37,2013-07-06 17:35:00,
2013-07-06 19:40:00,78.2,64.1,30.15,SSE,158,6.9,6.9,62,0.00,CLR,,0.00,WeatherDisplay:10.37,2013-07-06 17:40:00,
2013-07-06 19:45:00,77.8,64.2,30.15,SSW,205,7.0,7.0,63,0.00,CLR,,0.00,WeatherDisplay:10.37,2013-07-06 17:45:00,
2013-07-06 19:50:00,77.7,64.1,30.15,South,177,7.0,7.0,63,0.00,CLR,,0.00,WeatherDisplay:10.37,2013-07-06 17:50:00,
2013-07-06 19:56:00,77.6,64.0,30.15,SSE,158,4.6,4.6,63,0.00,CLR,,0.00,WeatherDisplay:10.37,2013-07-06 17:56:00,
2013-07-06 20:01:00,77.4,63.8,30.15,South,184,5.0,5.0,63,0.00,CLR,,0.00,WeatherDisplay:10.37,2013-07-06 18:01:00,
2013-07-06 20:06:00,77.3,63.7,30.15,South,176,5.0,5.0,63,0.00,CLR,,0.00,WeatherDisplay:10.37,2013-07-06 18:06:00,
2013-07-06 20:12:00,77.2,64.1,30.15,South,170,3.5,3.5,64,0.00,CLR,,0.00,WeatherDisplay:10.37,2013-07-06 18:12:00,
2013-07-06 20:17:00,76.8,64.1,30.15,SSE,161,4.0,4.0,65,0.00,CLR,,0.00,WeatherDisplay:10.37,2013-07-06 18:17:00,
2013-07-06 20:23:00,76.7,64.0,30.15,SSE,168,3.5,3.5,65,0.00,CLR,,0.00,WeatherDisplay:10.37,2013-07-06 18:23:00,
2013-07-06 20:28:00,76.4,64.2,30.15,SSE,166,3.5,3.5,66,0.00,CLR,,0.00,WeatherDisplay:10.37,2013-07-06 18:28:00,
2013-07-06 20:33:00,76.1,63.9,30.15,SSE,154,4.0,4.0,66,0.00,CLR,,0.00,WeatherDisplay:10.37,2013-07-06 18:33:00,
2013-07-06 20:39:00,76.1,64.3,30.15,SSE,151,2.3,0.0,67,0.00,CLR,,0.00,WeatherDisplay:10.37,2013-07-06 18:39:00,
2013-07-06 20:45:00,76.1,64.3,30.15,SSE,150,1.1,1.1,67,0.00,CLR,,0.00,WeatherDisplay:10.37,2013-07-06 18:45:00,
2013-07-06 20:51:00,76.0,64.2,30.15,SSE,152,3.5,3.5,67,0.00,CLR,,0.00,WeatherDisplay:10.37,2013-07-06 18:51:00,
2013-07-06 20:56:00,75.8,64.1,30.15,SSE,152,2.0,2.0,67,0.00,CLR,,0.00,WeatherDisplay:10.37,2013-07-06 18:56:00,
2013-07-06 21:02:00,75.5,64.2,30.15,SSE,152,2.3,2.3,68,0.00,CLR,,0.00,WeatherDisplay:10.37,2013-07-06 19:02:00,
2013-07-06 21:07:00,75.2,64.3,30.15,SSE,152,1.1,1.1,69,0.00,CLR,,0.00,WeatherDisplay:10.37,2013-07-06 19:07:00,
2013-07-06 21:13:00,74.9,64.5,30.15,SE,141,3.0,3.0,70,0.00,CLR,,0.00,WeatherDisplay:10.37,2013-07-06 19:13:00,
2013-07-06 21:18:00,74.6,64.6,30.16,ESE,110,3.5,3.5,71,0.00,CLR,,0.00,WeatherDisplay:10.37,2013-07-06 19:18:00,
2013-07-06 21:23:00,74.3,64.3,30.16,ESE,121,3.5,3.5,71,0.00,CLR,,0.00,WeatherDisplay:10.37,2013-07-06 19:23:00,
2013-07-06 21:29:00,73.9,64.7,30.15,ESE,117,4.0,4.0,73,0.00,CLR,,0.00,WeatherDisplay:10.37,2013-07-06 19:29:00,
2013-07-06 21:34:00,73.4,64.6,30.15,ESE,117,4.0,4.0,74,0.00,CLR,,0.00,WeatherDisplay:10.37,2013-07-06 19:34:00,
2013-07-06 21:40:00,73.0,65.0,30.16,SE,124,3.5,3.5,76,0.00,CLR,,0.00,WeatherDisplay:10.37,2013-07-06 19:40:00,
2013-07-06 21:45:00,72.7,65.1,30.16,SE,127,4.0,4.0,77,0.00,CLR,,0.00,WeatherDisplay:10.37,2013-07-06 19:45:00,
2013-07-06 21:50:00,72.5,65.2,30.16,ESE,122,3.5,3.5,78,0.00,CLR,,0.00,WeatherDisplay:10.37,2013-07-06 19:50:00,
2013-07-06 21:56:00,72.3,65.4,30.16,ESE,121,3.5,3.5,79,0.00,CLR,,0.00,WeatherDisplay:10.37,2013-07-06 19:56:00,
2013-07-06 22:01:00,72.2,65.7,30.16,ESE,122,4.0,4.0,80,0.00,CLR,,0.00,WeatherDisplay:10.37,2013-07-06 20:01:00,
2013-07-06 22:07:00,72.0,65.5,30.16,ESE,110,3.5,3.5,80,0.00,CLR,,0.00,WeatherDisplay:10.37,2013-07-06 20:07:00,
2013-07-06 22:12:00,72.0,65.5,30.16,ESE,110,3.5,3.5,80,0.00,CLR,,0.00,WeatherDisplay:10.37,2013-07-06 20:12:00,
2013-07-06 22:18:00,71.9,65.8,30.17,ESE,112,2.3,2.3,81,0.00,CLR,,0.00,WeatherDisplay:10.37,2013-07-06 20:18:00,
2013-07-06 22:23:00,71.9,65.8,30.17,ESE,114,3.5,3.5,81,0.00,CLR,,0.00,WeatherDisplay:10.37,2013-07-06 20:23:00,
2013-07-06 22:28:00,71.8,66.0,30.17,ESE,114,3.5,3.5,82,0.00,CLR,,0.00,WeatherDisplay:10.37,2013-07-06 20:28:00,
2013-07-06 22:33:00,71.8,66.0,30.17,ESE,113,3.0,3.0,82,0.00,CLR,,0.00,WeatherDisplay:10.37,2013-07-06 20:33:00,
2013-07-06 22:39:00,71.7,65.9,30.17,ESE,111,3.5,3.5,82,0.00,CLR,,0.00,WeatherDisplay:10.37,2013-07-06 20:39:00,
2013-07-06 22:44:00,71.6,65.8,30.17,ESE,108,3.5,3.5,82,0.00,CLR,,0.00,WeatherDisplay:10.37,2013-07-06 20:44:00,
2013-07-06 22:50:00,71.5,65.4,30.17,ESE,107,3.5,3.5,81,0.00,CLR,,0.00,WeatherDisplay:10.37,2013-07-06 20:50:00,
2013-07-06 22:55:00,71.4,65.3,30.17,East,97,3.5,3.5,81,0.00,CLR,,0.00,WeatherDisplay:10.37,2013-07-06 20:55:00,
2013-07-06 23:00:00,71.4,64.9,30.17,East,97,2.3,2.3,80,0.00,CLR,,0.00,WeatherDisplay:10.37,2013-07-06 21:00:00,
2013-07-06 23:06:00,71.4,64.9,30.17,East,96,3.5,3.5,80,0.00,CLR,,0.00,WeatherDisplay:10.37,2013-07-06 21:06:00,
2013-07-06 23:12:00,71.4,64.2,30.17,East,92,3.5,3.5,78,0.00,CLR,,0.00,WeatherDisplay:10.37,2013-07-06 21:12:00,
2013-07-06 23:17:00,71.6,64.7,30.17,East,92,5.0,5.0,79,0.00,CLR,,0.00,WeatherDisplay:10.37,2013-07-06 21:17:00,
2013-07-06 23:23:00,71.5,63.5,30.17,East,93,3.5,3.5,76,0.00,CLR,,0.00,WeatherDisplay:10.37,2013-07-06 21:23:00,
2013-07-06 23:28:00,71.3,58.9,30.17,East,95,3.5,3.5,65,0.00,CLR,,0.00,WeatherDisplay:10.37,2013-07-06 21:28:00,
2013-07-06 23:33:00,71.8,58.1,30.17,East,97,3.5,3.5,62,0.00,CLR,,0.00,WeatherDisplay:10.37,2013-07-06 21:33:00,
2013-07-06 23:39:00,72.3,57.6,30.17,East,95,3.5,3.5,60,0.00,CLR,,0.00,WeatherDisplay:10.37,2013-07-06 21:39:00,
2013-07-06 23:44:00,72.6,57.4,30.17,East,94,3.0,3.0,59,0.00,CLR,,0.00,WeatherDisplay:10.37,2013-07-06 21:44:00,
2013-07-06 23:51:00,73.0,56.9,30.17,East,95,3.5,3.5,57,0.00,CLR,,0.00,WeatherDisplay:10.37,2013-07-06 21:51:00,
2013-07-06 23:56:00,73.3,56.7,30.17,East,95,3.5,3.5,56,0.00,CLR,,0.00,WeatherDisplay:10.37,2013-07-06 21:56:00,